Time;durP1;ratioP1;P1;durP2;ratioP2;P2;SDS_P1;SDS_P2;PMS_P1;PMS_P2;Temp;Humidity;BMP_temperature;BMP_pressure;BME280_temperature;BME280_humidity;BME280_pressure;Samples;Min_cycle;Max_cycle;Signal;HPM_P1;HPM_P2
2023/08/25 00:00:00;;;;;;;3.65;2.55;;;19.60;99.90;;;;;;4969978;28;20386;-77
2023/08/25 00:02:25;;;;;;;;;;;19.50;99.90;;;;;;4970688;28;20079;-77
2023/08/25 00:04:52;;;;;;;3.83;3.05;;;19.50;99.90;;;;;;4948973;29;19945;-77
2023/08/25 00:07:18;;;;;;;3.97;3.10;;;19.50;99.90;;;;;;4996583;28;20058;-77
2023/08/25 00:09:45;;;;;;;3.05;2.50;;;19.40;99.90;;;;;;4967121;28;20050;-77
2023/08/25 00:12:12;;;;;;;2.60;2.40;;;19.40;99.90;;;;;;4961612;28;20506;-77
2023/08/25 00:14:37;;;;;;;2.55;2.20;;;19.40;99.90;;;;;;4953287;28;20054;-76
2023/08/25 00:17:03;;;;;;;2.97;2.17;;;19.30;99.90;;;;;;4969881;28;20039;-76
2023/08/25 00:19:29;;;;;;;;;;;19.30;99.90;;;;;;4971996;28;20499;-76
2023/08/25 00:21:55;;;;;;;2.20;2.00;;;19.30;99.90;;;;;;4955183;28;19922;-76
2023/08/25 00:24:21;;;;;;;;;;;19.30;99.90;;;;;;4973802;28;20055;-76
2023/08/25 00:26:46;;;;;;;2.90;2.60;;;19.30;99.90;;;;;;4972941;28;20350;-76
2023/08/25 00:29:12;;;;;;;;;;;19.30;99.90;;;;;;4957415;28;20061;-76
2023/08/25 00:31:38;;;;;;;3.08;2.78;;;19.30;99.90;;;;;;4983751;28;19922;-76
2023/08/25 00:34:04;;;;;;;;;;;19.30;99.90;;;;;;4966511;28;20107;-76
2023/08/25 00:36:30;;;;;;;4.07;3.35;;;19.20;99.90;;;;;;4970764;28;20027;-76
2023/08/25 00:38:56;;;;;;;;;;;19.20;99.90;;;;;;4974000;28;20066;-76
2023/08/25 00:41:21;;;;;;;3.92;3.13;;;19.20;99.90;;;;;;4989248;28;19922;-76
2023/08/25 00:43:47;;;;;;;;;;;19.20;99.90;;;;;;4970328;28;20102;-76
2023/08/25 00:46:13;;;;;;;3.97;3.00;;;19.20;99.90;;;;;;4986394;28;19929;-76
2023/08/25 00:48:40;;;;;;;3.53;2.65;;;19.20;99.90;;;;;;4954189;28;20051;-76
2023/08/25 00:51:07;;;;;;;2.95;2.65;;;19.30;99.90;;;;;;4983605;28;20113;-76
2023/08/25 00:53:34;;;;;;;2.88;2.47;;;19.20;99.90;;;;;;4986619;28;20054;-76
2023/08/25 00:56:00;;;;;;;4.88;4.05;;;19.30;99.90;;;;;;4959109;28;20055;-76
2023/08/25 00:58:26;;;;;;;3.58;3.00;;;19.30;99.90;;;;;;4972978;28;20049;-76
2023/08/25 01:00:53;;;;;;;;;;;19.40;99.90;;;;;;4971228;28;20038;-78
2023/08/25 01:03:18;;;;;;;3.58;3.15;;;19.30;99.90;;;;;;4992270;28;20366;-77
2023/08/25 01:05:48;;;;;;;3.58;2.95;;;19.30;99.90;;;;;;4949426;28;20049;-77
2023/08/25 01:08:16;;;;;;;3.15;2.63;;;19.30;99.90;;;;;;4971156;28;20057;-77
2023/08/25 01:10:55;;;;;;;3.72;3.20;;;19.40;99.90;;;;;;4972879;28;20131;-77
2023/08/25 01:13:36;;;;;;;3.53;3.22;;;19.40;99.90;;;;;;4973200;28;20471;-77
2023/08/25 01:16:05;;;;;;;4.30;3.30;;;19.40;99.90;;;;;;4969594;28;20069;-77
2023/08/25 01:18:34;;;;;;;3.53;3.13;;;19.40;99.90;;;;;;4961863;28;20043;-78
2023/08/25 01:21:03;;;;;;;4.45;3.70;;;19.50;99.90;;;;;;4971474;28;20043;-77
2023/08/25 01:23:42;;;;;;;3.22;2.78;;;19.50;99.90;;;;;;4955800;28;20112;-76
2023/08/25 01:26:10;;;;;;;3.50;3.20;;;19.50;99.90;;;;;;4972033;28;20525;-77
2023/08/25 01:28:40;;;;;;;3.50;3.10;;;19.60;99.90;;;;;;4971434;28;20046;-77
2023/08/25 01:31:05;;;;;;;3.10;2.80;;;19.50;99.90;;;;;;4956487;28;20130;-77
2023/08/25 01:33:32;;;;;;;4.35;3.70;;;19.60;99.90;;;;;;4948766;28;20138;-77
2023/08/25 01:36:16;;;;;;;5.05;4.55;;;19.50;99.90;;;;;;4966289;28;20082;-75
2023/08/25 01:39:03;;;;;;;4.07;3.67;;;19.60;99.90;;;;;;4953265;28;20057;-77
2023/08/25 01:41:41;;;;;;;;;;;19.50;99.90;;;;;;4969369;28;20402;-77
2023/08/25 01:44:09;;;;;;;3.58;3.22;;;19.50;99.90;;;;;;4988734;28;19952;-77
2023/08/25 01:46:37;;;;;;;4.22;3.72;;;19.50;99.90;;;;;;4958670;28;20094;-77
2023/08/25 01:49:04;;;;;;;4.05;3.33;;;19.40;99.90;;;;;;4956031;28;20055;-77
2023/08/25 01:51:31;;;;;;;4.07;3.25;;;19.40;99.90;;;;;;4954603;28;20052;-77
2023/08/25 01:53:56;;;;;;;5.25;3.60;;;19.30;99.90;;;;;;4972702;28;20047;-77
2023/08/25 01:56:22;;;;;;;;;;;19.40;99.90;;;;;;4962742;28;20142;-76
2023/08/25 01:58:51;;;;;;;4.68;3.67;;;19.30;99.90;;;;;;5004104;28;20345;-76
2023/08/25 02:01:17;;;;;;;5.63;4.78;;;19.30;99.90;;;;;;4954417;28;20136;-76
2023/08/25 02:03:43;;;;;;;;;;;19.30;99.90;;;;;;4955756;28;20447;-76
2023/08/25 02:06:09;;;;;;;5.97;5.35;;;19.10;99.90;;;;;;4952159;28;20392;-76
2023/08/25 02:08:35;;;;;;;6.90;6.20;;;19.10;99.90;;;;;;4996053;28;20398;-76
2023/08/25 02:11:01;;;;;;;;;;;19.20;99.90;;;;;;4955166;28;20049;-76
2023/08/25 02:13:26;;;;;;;7.45;6.65;;;19.10;99.90;;;;;;4966222;28;20029;-76
2023/08/25 02:15:53;;;;;;;;;;;19.10;99.90;;;;;;4990644;28;20492;-75
2023/08/25 02:18:19;;;;;;;5.33;4.07;;;19.10;99.90;;;;;;4969830;28;19929;-75
2023/08/25 02:20:44;;;;;;;;;;;19.10;99.90;;;;;;4968763;28;20287;-75
2023/08/25 02:23:10;;;;;;;6.25;5.32;;;19.00;99.90;;;;;;5001238;28;20396;-75
2023/08/25 02:25:35;;;;;;;;;;;19.00;99.90;;;;;;4972006;28;20042;-76
2023/08/25 02:28:02;;;;;;;7.05;5.78;;;19.00;99.90;;;;;;4970984;28;19922;-76
2023/08/25 02:30:28;;;;;;;6.80;6.13;;;19.00;99.90;;;;;;4955717;28;20047;-76
2023/08/25 02:32:55;;;;;;;6.78;6.00;;;19.00;99.90;;;;;;4966356;28;20107;-75
2023/08/25 02:35:21;;;;;;;5.22;4.72;;;19.00;99.90;;;;;;4954897;28;20061;-76
2023/08/25 02:38:00;;;;;;;5.47;4.60;;;18.90;99.90;;;;;;4954564;28;20051;-76
2023/08/25 02:40:27;;;;;;;5.63;4.95;;;18.90;99.90;;;;;;4958085;28;20077;-76
2023/08/25 02:42:57;;;;;;;5.60;4.53;;;19.00;99.90;;;;;;4939878;28;20039;-76
2023/08/25 02:45:26;;;;;;;6.38;5.18;;;18.90;99.90;;;;;;4950175;28;20103;-76
2023/08/25 02:47:53;;;;;;;7.63;6.82;;;18.90;99.90;;;;;;4962789;28;20058;-76
2023/08/25 02:50:19;;;;;;;7.50;6.10;;;19.00;99.90;;;;;;4967832;28;20047;-77
2023/08/25 02:52:45;;;;;;;5.30;4.40;;;19.00;99.90;;;;;;4952004;28;20130;-76
2023/08/25 02:55:15;;;;;;;6.88;5.40;;;19.00;99.90;;;;;;4966351;28;20047;-76
2023/08/25 02:57:47;;;;;;;6.30;5.07;;;19.10;99.90;;;;;;4963701;28;20149;-76
2023/08/25 03:00:15;;;;;;;5.60;5.05;;;19.10;99.90;;;;;;4966231;28;20046;-76
2023/08/25 03:02:41;;;;;;;5.03;4.45;;;19.00;99.90;;;;;;4971119;28;20080;-76
2023/08/25 03:05:07;;;;;;;;;;;19.10;99.90;;;;;;4970744;28;20158;-76
2023/08/25 03:07:33;;;;;;;9.95;8.93;;;19.10;99.90;;;;;;4952974;28;19986;-76
2023/08/25 03:10:00;;;;;;;9.88;8.77;;;19.20;99.90;;;;;;4970580;28;20039;-76
2023/08/25 03:12:26;;;;;;;9.23;7.85;;;19.20;99.90;;;;;;4941511;28;20050;-76
2023/08/25 03:14:55;;;;;;;9.80;8.80;;;19.10;99.90;;;;;;4966912;28;20050;-76
2023/08/25 03:17:22;;;;;;;7.78;6.47;;;19.20;99.90;;;;;;4965050;28;20070;-76
2023/08/25 03:19:48;;;;;;;6.43;5.43;;;19.20;99.90;;;;;;4951539;29;20122;-76
2023/08/25 03:22:14;;;;;;;4.75;4.25;;;19.20;99.90;;;;;;4964475;28;20126;-76
2023/08/25 03:24:40;;;;;;;;;;;19.10;99.90;;;;;;4959809;28;20113;-76
2023/08/25 03:27:05;;;;;;;4.80;4.28;;;19.20;99.90;;;;;;4976251;28;20039;-76
2023/08/25 03:29:31;;;;;;;;;;;19.10;99.90;;;;;;5000988;28;20489;-76
2023/08/25 03:31:58;;;;;;;8.35;7.03;;;19.10;99.90;;;;;;5002433;28;19922;-76
2023/08/25 03:34:24;;;;;;;6.50;5.78;;;19.10;99.90;;;;;;4970573;28;20112;-76
2023/08/25 03:36:49;;;;;;;;;;;19.10;99.90;;;;;;4971522;28;20547;-76
2023/08/25 03:39:15;;;;;;;5.30;4.78;;;19.20;99.90;;;;;;5002094;28;20342;-77
2023/08/25 03:41:41;;;;;;;;;;;19.20;99.90;;;;;;4942490;28;20078;-76
2023/08/25 03:44:06;;;;;;;5.03;4.50;;;19.10;99.90;;;;;;4963129;28;20386;-76
2023/08/25 03:46:32;;;;;;;;;;;19.10;99.90;;;;;;4954066;28;20423;-77
2023/08/25 03:48:59;;;;;;;4.13;3.53;;;19.20;99.90;;;;;;4959850;28;19929;-77
2023/08/25 03:51:25;;;;;;;3.70;3.30;;;19.10;99.90;;;;;;4970241;28;20047;-77
2023/08/25 03:53:50;;;;;;;;;;;19.20;99.90;;;;;;4951363;29;20058;-77
2023/08/25 03:56:16;;;;;;;3.50;3.20;;;19.10;99.90;;;;;;4950801;28;19929;-77
2023/08/25 03:58:41;;;;;;;;;;;19.10;99.90;;;;;;4964724;28;20138;-77
2023/08/25 04:01:08;;;;;;;4.82;3.90;;;19.00;99.90;;;;;;4983134;28;19919;-76
2023/08/25 04:03:33;;;;;;;4.30;3.90;;;19.20;99.90;;;;;;4951549;28;20447;-76
2023/08/25 04:05:59;;;;;;;;;;;19.10;99.90;;;;;;4965900;28;20086;-76
2023/08/25 04:08:25;;;;;;;4.00;3.60;;;19.10;99.90;;;;;;5001547;28;19957;-76
2023/08/25 04:10:51;;;;;;;;;;;19.00;99.90;;;;;;4957817;28;20100;-76
2023/08/25 04:13:18;;;;;;;3.90;3.37;;;19.00;99.90;;;;;;4973282;28;19922;-76
2023/08/25 04:15:44;;;;;;;4.32;3.60;;;19.10;99.90;;;;;;4968238;28;20050;-76
2023/08/25 04:18:10;;;;;;;4.03;3.63;;;19.10;99.90;;;;;;4961880;28;20054;-76
2023/08/25 04:20:36;;;;;;;4.00;3.05;;;19.10;99.90;;;;;;4969347;28;20134;-76
2023/08/25 04:23:01;;;;;;;;;;;19.00;99.90;;;;;;4951579;28;20073;-76
2023/08/25 04:25:29;;;;;;;3.88;3.20;;;19.00;99.90;;;;;;4984017;28;19918;-76
2023/08/25 04:27:58;;;;;;;5.18;3.60;;;19.10;99.90;;;;;;4962900;28;20070;-76
2023/08/25 04:30:24;;;;;;;4.05;3.45;;;19.00;99.90;;;;;;4951955;28;20046;-76
2023/08/25 04:32:50;;;;;;;;;;;19.10;99.90;;;;;;4969929;28;20555;-76
2023/08/25 04:35:16;;;;;;;6.25;5.65;;;19.10;99.90;;;;;;5002467;28;19976;-76
2023/08/25 04:37:46;;;;;;;5.57;5.00;;;19.00;99.90;;;;;;4956115;28;20082;-76
2023/08/25 04:40:15;;;;;;;5.50;4.68;;;19.00;99.90;;;;;;4958546;28;20054;-76
2023/08/25 04:42:42;;;;;;;5.03;4.15;;;19.00;99.90;;;;;;4953783;28;20086;-76
2023/08/25 04:45:11;;;;;;;3.95;3.55;;;19.10;99.90;;;;;;4953734;28;20039;-76
2023/08/25 04:47:38;;;;;;;4.82;3.70;;;19.10;99.90;;;;;;4952563;28;20054;-76
2023/08/25 04:50:05;;;;;;;4.72;4.10;;;19.00;99.90;;;;;;4983584;28;20501;-76
2023/08/25 04:52:31;;;;;;;4.45;3.75;;;19.00;99.90;;;;;;4972299;28;20062;-76
2023/08/25 04:54:56;;;;;;;;;;;19.10;99.90;;;;;;4971875;28;20101;-76
2023/08/25 04:57:22;;;;;;;3.55;2.90;;;19.00;99.90;;;;;;4994560;28;19930;-76
2023/08/25 04:59:48;;;;;;;;;;;19.00;99.90;;;;;;4963087;28;20448;-76
2023/08/25 05:02:14;;;;;;;8.32;6.30;;;19.00;99.90;;;;;;5002421;28;19941;-76
2023/08/25 05:04:39;;;;;;;5.22;4.32;;;19.10;99.90;;;;;;4969010;28;20035;-76
2023/08/25 05:07:05;;;;;;;;;;;19.00;99.90;;;;;;4957074;28;20101;-76
2023/08/25 05:09:31;;;;;;;3.92;3.40;;;19.00;99.90;;;;;;5005689;28;20377;-76
2023/08/25 05:11:56;;;;;;;;;;;19.00;99.90;;;;;;4973128;28;20046;-76
2023/08/25 05:14:22;;;;;;;4.80;4.30;;;19.10;99.90;;;;;;4972161;28;20016;-76
2023/08/25 05:16:48;;;;;;;6.13;5.22;;;19.10;99.90;;;;;;4969544;28;20051;-76
2023/08/25 05:19:13;;;;;;;;;;;19.10;99.90;;;;;;4973338;28;20043;-76
2023/08/25 05:21:40;;;;;;;5.78;5.18;;;19.10;99.90;;;;;;4972841;28;19922;-76
2023/08/25 05:24:23;;;;;;;12.80;10.70;;;19.20;99.90;;;;;;4940125;28;20043;-76
2023/08/25 05:26:53;;;;;;;11.35;9.15;;;19.20;99.90;;;;;;4952142;28;20039;-76
2023/08/25 05:29:19;;;;;;;12.52;10.18;;;19.10;99.90;;;;;;5004470;28;20125;-76
2023/08/25 05:31:45;;;;;;;7.70;6.45;;;19.10;99.90;;;;;;4965214;28;20038;-76
2023/08/25 05:34:10;;;;;;;;;;;19.10;99.90;;;;;;4955598;28;20054;-76
2023/08/25 05:36:36;;;;;;;5.53;4.95;;;19.20;99.90;;;;;;4953995;28;19929;-76
2023/08/25 05:39:02;;;;;;;;;;;19.20;99.90;;;;;;4964618;28;20047;-76
2023/08/25 05:41:28;;;;;;;5.70;4.35;;;19.20;99.90;;;;;;4984725;28;20366;-76
2023/08/25 05:43:54;;;;;;;;;;;19.30;99.90;;;;;;4962588;28;20066;-76
2023/08/25 05:46:19;;;;;;;4.90;4.10;;;19.30;99.90;;;;;;4956399;28;19922;-76
2023/08/25 05:48:45;;;;;;;;;;;19.30;99.90;;;;;;4969806;28;20499;-76
2023/08/25 05:51:11;;;;;;;8.30;6.70;;;19.30;99.90;;;;;;4982971;28;19925;-76
2023/08/25 05:53:36;;;;;;;;;;;19.30;99.90;;;;;;4967544;28;20403;-76
2023/08/25 05:56:02;;;;;;;8.30;6.72;;;19.30;99.90;;;;;;4964222;28;20328;-76
2023/08/25 05:58:28;;;;;;;;;;;19.30;99.90;;;;;;4986702;28;20043;-76
2023/08/25 06:00:56;;;;;;;6.68;5.25;;;19.40;99.90;;;;;;5004028;28;19918;-76
2023/08/25 06:03:22;;;;;;;8.25;6.72;;;19.30;99.90;;;;;;4958554;28;20051;-76
2023/08/25 06:05:51;;;;;;;7.03;6.13;;;19.30;99.90;;;;;;4972231;28;20045;-76
2023/08/25 06:08:17;;;;;;;9.20;6.88;;;19.30;99.90;;;;;;4972373;28;20058;-78
2023/08/25 06:10:43;;;;;;;10.05;7.90;;;19.30;99.90;;;;;;4968263;28;20050;-78
2023/08/25 06:13:09;;;;;;;8.23;6.70;;;19.40;99.90;;;;;;4964630;28;20045;-77
2023/08/25 06:15:34;;;;;;;;;;;19.40;99.90;;;;;;4970112;28;20495;-78
2023/08/25 06:18:01;;;;;;;8.32;6.60;;;19.40;99.90;;;;;;4952432;28;19922;-76
2023/08/25 06:20:26;;;;;;;8.77;7.35;;;19.40;99.90;;;;;;4986909;28;20562;-76
2023/08/25 06:22:52;;;;;;;10.13;8.50;;;19.40;99.90;;;;;;4967908;28;20110;-77
2023/08/25 06:25:18;;;;;;;;;;;19.50;99.90;;;;;;4967173;28;20042;-77
2023/08/25 06:27:43;;;;;;;10.25;7.90;;;19.50;99.90;;;;;;4996922;28;19922;-77
2023/08/25 06:30:10;;;;;;;;;;;19.40;99.90;;;;;;4960752;28;20105;-77
2023/08/25 06:32:36;;;;;;;7.72;5.75;;;19.50;99.90;;;;;;4990393;28;20061;-78
2023/08/25 06:35:02;;;;;;;;;;;19.50;99.90;;;;;;4974028;28;20115;-77
2023/08/25 06:37:27;;;;;;;6.97;5.35;;;19.60;99.90;;;;;;4970823;28;20013;-77
2023/08/25 06:39:53;;;;;;;;;;;19.50;99.90;;;;;;4954852;28;20050;-77
2023/08/25 06:42:19;;;;;;;13.50;9.95;;;19.50;99.90;;;;;;4963906;28;20309;-77
2023/08/25 06:44:44;;;;;;;;;;;19.50;99.90;;;;;;4973208;28;20050;-77
2023/08/25 06:47:10;;;;;;;8.93;7.03;;;19.70;99.90;;;;;;4970307;28;20025;-77
2023/08/25 06:49:36;;;;;;;8.55;6.85;;;19.70;99.90;;;;;;4971209;28;20383;-76
2023/08/25 06:52:02;;;;;;;;;;;19.60;99.90;;;;;;4954929;28;20043;-77
2023/08/25 06:54:27;;;;;;;16.00;12.55;;;19.60;99.90;;;;;;5003147;28;20024;-77
2023/08/25 06:56:54;;;;;;;;;;;19.60;99.90;;;;;;4946541;28;20109;-75
2023/08/25 06:59:20;;;;;;;19.80;14.75;;;19.60;99.90;;;;;;4972559;28;19933;-77
2023/08/25 07:01:45;;;;;;;17.02;12.68;;;19.60;99.90;;;;;;4964077;28;20039;-77
2023/08/25 07:04:11;;;;;;;;;;;19.70;99.90;;;;;;4968522;28;20129;-77
2023/08/25 07:06:37;;;;;;;19.45;15.45;;;19.60;99.90;;;;;;4955320;28;19922;-78
2023/08/25 07:09:03;;;;;;;15.00;10.55;;;19.50;99.90;;;;;;4970406;28;20066;-77
2023/08/25 07:11:29;;;;;;;12.93;10.38;;;19.50;99.90;;;;;;4955739;28;20050;-77
2023/08/25 07:13:55;;;;;;;24.52;16.13;;;19.60;99.90;;;;;;4969627;28;20042;-76
2023/08/25 07:16:20;;;;;;;;;;;19.70;99.90;;;;;;4977753;28;20552;-77
2023/08/25 07:18:46;;;;;;;15.75;11.48;;;19.70;99.90;;;;;;4969912;28;19926;-77
2023/08/25 07:21:11;;;;;;;;;;;19.80;99.90;;;;;;4978808;28;20198;-77
2023/08/25 07:23:38;;;;;;;19.20;14.43;;;19.70;99.90;;;;;;4983919;28;20301;-76
2023/08/25 07:26:03;;;;;;;;;;;19.70;99.90;;;;;;4971309;28;20504;-77
2023/08/25 07:28:30;;;;;;;10.17;7.73;;;19.80;99.90;;;;;;4970869;28;19985;-77
2023/08/25 07:30:56;;;;;;;13.75;9.73;;;19.80;99.90;;;;;;4969770;28;20104;-77
2023/08/25 07:33:23;;;;;;;13.02;9.50;;;19.70;99.90;;;;;;4953434;28;20058;-78
2023/08/25 07:35:49;;;;;;;9.63;8.07;;;19.80;99.90;;;;;;4970799;28;20521;-76
2023/08/25 07:38:15;;;;;;;8.48;6.28;;;19.80;99.90;;;;;;4966676;28;20051;-77
2023/08/25 07:40:42;;;;;;;6.85;5.32;;;19.90;99.90;;;;;;4970467;28;20121;-77
2023/08/25 07:43:08;;;;;;;7.53;5.88;;;19.90;99.90;;;;;;4999608;28;20051;-78
2023/08/25 07:45:36;;;;;;;10.15;8.07;;;19.90;99.90;;;;;;4968716;28;20043;-76
2023/08/25 07:48:02;;;;;;;6.78;5.43;;;19.80;99.90;;;;;;4959784;28;20055;-79
2023/08/25 07:50:29;;;;;;;6.32;4.88;;;19.80;99.90;;;;;;4959294;28;20049;-77
2023/08/25 07:52:55;;;;;;;7.72;5.60;;;19.80;99.90;;;;;;4956343;28;20038;-78
2023/08/25 07:55:21;;;;;;;5.00;4.43;;;19.70;99.90;;;;;;4969923;28;20043;-77
2023/08/25 07:57:47;;;;;;;4.85;3.72;;;19.80;99.90;;;;;;4954098;28;20097;-77
2023/08/25 08:00:15;;;;;;;4.88;3.90;;;19.90;99.90;;;;;;4961744;28;20486;-76
2023/08/25 08:02:49;;;;;;;4.13;3.47;;;20.00;99.90;;;;;;4970231;28;20057;-77
2023/08/25 08:05:18;;;;;;;6.50;5.57;;;20.10;99.90;;;;;;4970169;28;20050;-77
2023/08/25 08:07:45;;;;;;;9.55;8.18;;;20.10;99.90;;;;;;4961238;28;20204;-77
2023/08/25 08:10:12;;;;;;;9.63;7.20;;;20.10;99.90;;;;;;4952671;28;20047;-77
2023/08/25 08:12:39;;;;;;;11.82;8.80;;;20.10;99.90;;;;;;4954051;28;20050;-77
2023/08/25 08:15:06;;;;;;;8.38;6.13;;;20.20;99.90;;;;;;4970116;28;20058;-78
2023/08/25 08:17:32;;;;;;;9.80;7.85;;;20.30;99.90;;;;;;4970301;28;20459;-76
2023/08/25 08:20:00;;;;;;;9.13;6.95;;;20.30;99.90;;;;;;4953967;28;20117;-78
2023/08/25 08:22:27;;;;;;;6.05;4.60;;;20.40;99.90;;;;;;4954314;28;20034;-77
2023/08/25 08:24:53;;;;;;;7.45;6.07;;;20.40;99.90;;;;;;4966778;28;20049;-77
2023/08/25 08:27:19;;;;;;;11.63;7.25;;;20.50;99.90;;;;;;4968401;28;20522;-77
2023/08/25 08:29:46;;;;;;;9.05;6.97;;;20.40;99.90;;;;;;4970246;28;20376;-77
2023/08/25 08:32:13;;;;;;;6.35;5.07;;;20.40;99.90;;;;;;4966204;28;20050;-77
2023/08/25 08:34:39;;;;;;;5.40;4.30;;;20.40;99.90;;;;;;4969551;28;20046;-77
2023/08/25 08:37:07;;;;;;;12.90;8.88;;;20.40;99.90;;;;;;4945341;29;20050;-77
2023/08/25 08:39:33;;;;;;;10.07;7.53;;;20.40;99.90;;;;;;4965718;28;20128;-77
2023/08/25 08:42:03;;;;;;;7.28;6.47;;;20.40;99.90;;;;;;4970095;28;20043;-77
2023/08/25 08:44:35;;;;;;;8.57;5.30;;;20.50;99.90;;;;;;4973528;28;20745;-77
2023/08/25 08:47:03;;;;;;;11.18;7.88;;;20.70;99.90;;;;;;4973579;28;20050;-77
2023/08/25 08:49:30;;;;;;;8.93;7.68;;;20.60;99.90;;;;;;4973488;28;20046;-77
2023/08/25 08:51:58;;;;;;;10.40;7.50;;;20.70;99.90;;;;;;4960071;28;20042;-77
2023/08/25 08:54:27;;;;;;;7.75;6.07;;;20.70;99.90;;;;;;4954165;29;20050;-77
2023/08/25 08:56:54;;;;;;;10.48;7.82;;;20.90;99.90;;;;;;4987963;28;20122;-77
2023/08/25 08:59:20;;;;;;;9.88;7.00;;;21.00;99.90;;;;;;4971256;28;20059;-77
2023/08/25 09:01:48;;;;;;;8.98;6.55;;;21.00;99.90;;;;;;4970269;28;20038;-77
2023/08/25 09:04:18;;;;;;;9.45;7.10;;;21.00;99.90;;;;;;4965440;28;20130;-77
2023/08/25 09:06:44;;;;;;;10.27;6.47;;;21.00;99.90;;;;;;4969045;28;20050;-77
2023/08/25 09:09:11;;;;;;;7.28;5.53;;;21.00;99.90;;;;;;4972453;28;20063;-77
2023/08/25 09:11:36;;;;;;;4.55;3.83;;;21.10;99.90;;;;;;4988564;28;20043;-77
2023/08/25 09:14:05;;;;;;;7.47;5.80;;;21.20;99.90;;;;;;4955212;28;20049;-77
2023/08/25 09:16:34;;;;;;;6.05;4.70;;;21.10;99.90;;;;;;4961723;28;20047;-77
2023/08/25 09:19:04;;;;;;;9.50;7.05;;;21.20;99.90;;;;;;4970786;28;20039;-77
2023/08/25 09:21:30;;;;;;;7.50;5.72;;;21.20;99.90;;;;;;4946584;28;20043;-77
2023/08/25 09:24:01;;;;;;;6.57;3.67;;;21.10;99.90;;;;;;4969676;28;20053;-75
2023/08/25 09:26:38;;;;;;;3.50;3.17;;;21.20;99.90;;;;;;4972802;28;20062;-77
2023/08/25 09:29:04;;;;;;;6.13;4.88;;;21.10;99.90;;;;;;4956715;28;20168;-77
2023/08/25 09:31:31;;;;;;;4.63;3.83;;;21.00;99.90;;;;;;4972838;28;20149;-77
2023/08/25 09:34:02;;;;;;;4.35;3.65;;;21.00;99.90;;;;;;4972984;28;20592;-77
2023/08/25 09:36:28;;;;;;;3.28;2.65;;;21.00;99.90;;;;;;4972780;28;20402;-77
2023/08/25 09:38:54;;;;;;;3.85;3.00;;;21.10;99.90;;;;;;4965535;28;20153;-77
2023/08/25 09:41:26;;;;;;;3.13;2.80;;;21.20;99.90;;;;;;4979889;28;20126;-77
2023/08/25 09:43:59;;;;;;;3.25;2.65;;;21.20;99.90;;;;;;4956247;28;20129;-77
2023/08/25 09:46:30;;;;;;;4.05;2.88;;;21.40;99.90;;;;;;4968378;28;20114;-77
2023/08/25 09:49:07;;;;;;;3.60;2.70;;;21.50;99.90;;;;;;4968284;28;20475;-77
2023/08/25 09:51:41;;;;;;;3.03;2.60;;;21.70;99.90;;;;;;4972525;28;20090;-77
2023/08/25 09:54:12;;;;;;;3.42;2.60;;;21.70;99.90;;;;;;4956082;28;20494;-77
2023/08/25 09:56:39;;;;;;;5.13;4.13;;;21.80;99.90;;;;;;4972417;28;20748;-77
2023/08/25 09:59:07;;;;;;;5.10;4.25;;;21.90;99.90;;;;;;4972118;28;20094;-77
2023/08/25 10:01:46;;;;;;;4.60;3.70;;;21.90;99.90;;;;;;4957914;28;20043;-77
2023/08/25 10:04:13;;;;;;;4.40;3.20;;;21.90;99.90;;;;;;4962181;28;20106;-77
2023/08/25 10:06:40;;;;;;;4.88;3.70;;;22.00;99.90;;;;;;4972230;28;20046;-77
2023/08/25 10:09:07;;;;;;;4.20;3.40;;;21.90;99.90;;;;;;4966284;28;20349;-77
2023/08/25 10:11:48;;;;;;;5.30;3.40;;;21.80;99.90;;;;;;4948859;28;20050;-78
2023/08/25 10:14:14;;;;;;;4.47;3.72;;;21.70;99.90;;;;;;4968659;28;20051;-78
2023/08/25 10:17:01;;;;;;;4.18;3.47;;;21.60;99.90;;;;;;4969443;28;20046;-78
2023/08/25 10:19:34;;;;;;;3.88;3.28;;;21.50;99.90;;;;;;4956478;28;20506;-78
2023/08/25 10:22:01;;;;;;;4.28;2.90;;;21.50;99.90;;;;;;4952885;28;20075;-78
2023/08/25 10:24:29;;;;;;;5.55;3.63;;;21.50;99.90;;;;;;4956276;28;20070;-78
2023/08/25 10:26:56;;;;;;;4.30;3.28;;;21.40;99.90;;;;;;4988294;28;20130;-78
2023/08/25 10:29:24;;;;;;;3.75;3.35;;;21.50;99.90;;;;;;4966162;28;20047;-76
2023/08/25 10:32:02;;;;;;;4.95;4.00;;;21.40;99.90;;;;;;4961269;28;20047;-77
2023/08/25 10:34:38;;;;;;;4.97;3.80;;;21.40;99.90;;;;;;4955320;28;20054;-78
2023/08/25 10:37:09;;;;;;;4.75;3.85;;;21.40;99.90;;;;;;4962759;28;20047;-77
2023/08/25 10:39:51;;;;;;;6.22;4.25;;;21.40;99.90;;;;;;4953562;28;20054;-77
2023/08/25 10:42:23;;;;;;;5.05;4.00;;;21.40;99.90;;;;;;4971668;28;20051;-77
2023/08/25 10:44:54;;;;;;;5.18;4.60;;;21.30;99.90;;;;;;4971207;28;20046;-77
2023/08/25 10:47:26;;;;;;;8.40;5.88;;;21.20;99.90;;;;;;4971162;28;20454;-78
2023/08/25 10:49:54;;;;;;;8.63;6.63;;;21.20;99.90;;;;;;4971059;28;20129;-77
2023/08/25 10:52:20;;;;;;;9.60;6.88;;;21.10;99.90;;;;;;4962753;28;20101;-77
2023/08/25 10:54:47;;;;;;;7.80;6.00;;;21.10;99.90;;;;;;4952467;28;20403;-77
2023/08/25 10:57:31;;;;;;;9.20;7.00;;;21.10;99.90;;;;;;4974088;28;20047;-77
2023/08/25 11:00:17;;;;;;;7.53;6.00;;;20.90;99.90;;;;;;4969620;28;20043;-77
2023/08/25 11:02:43;;;;;;;5.57;4.50;;;20.90;99.90;;;;;;4961178;28;20045;-77
2023/08/25 11:05:33;;;;;;;6.03;4.47;;;20.90;99.90;;;;;;4970438;28;20051;-77
2023/08/25 11:08:22;;;;;;;8.77;6.82;;;20.90;99.90;;;;;;4954813;28;20047;-77
2023/08/25 11:11:07;;;;;;;9.13;6.22;;;20.80;99.90;;;;;;4971971;28;20043;-77
2023/08/25 11:13:36;;;;;;;6.63;5.00;;;20.80;99.90;;;;;;4999638;28;20121;-77
2023/08/25 11:16:06;;;;;;;6.60;5.22;;;20.80;99.90;;;;;;4971104;28;20082;-77
2023/08/25 11:18:32;;;;;;;5.28;4.60;;;20.80;99.90;;;;;;4965677;28;20101;-77
2023/08/25 11:21:00;;;;;;;8.10;5.68;;;20.80;99.90;;;;;;4971052;28;20046;-78
2023/08/25 11:23:44;;;;;;;9.55;6.78;;;20.80;99.90;;;;;;4968137;28;20097;-77
2023/08/25 11:26:15;;;;;;;7.55;6.13;;;20.70;99.90;;;;;;4968832;28;20447;-77
2023/08/25 11:28:41;;;;;;;9.93;7.32;;;20.70;99.90;;;;;;4952306;28;20038;-76
2023/08/25 11:31:07;;;;;;;8.57;7.13;;;20.60;99.90;;;;;;4977732;28;20105;-77
2023/08/25 11:33:34;;;;;;;9.27;6.93;;;20.60;99.90;;;;;;4953258;28;20410;-77
2023/08/25 11:36:02;;;;;;;7.75;6.38;;;20.40;99.90;;;;;;4953535;28;20046;-77
2023/08/25 11:38:30;;;;;;;7.30;5.13;;;20.40;99.90;;;;;;4986105;28;20050;-77
2023/08/25 11:40:56;;;;;;;8.82;7.13;;;20.30;99.90;;;;;;5000000;28;20043;-77
2023/08/25 11:43:32;;;;;;;7.45;6.65;;;20.30;99.90;;;;;;4949129;28;20045;-81
2023/08/25 11:45:59;;;;;;;7.55;5.85;;;20.40;99.90;;;;;;4968046;28;20068;-79
2023/08/25 11:48:25;;;;;;;8.90;6.75;;;20.60;99.90;;;;;;4974119;28;20126;-79
2023/08/25 11:50:51;;;;;;;9.13;7.13;;;20.60;99.90;;;;;;4969654;28;20056;-80
2023/08/25 11:53:17;;;;;;;6.50;5.60;;;20.70;99.90;;;;;;4937254;28;20118;-81
2023/08/25 11:56:06;;;;;;;6.03;5.28;;;20.80;99.90;;;;;;4969283;28;20096;-80
2023/08/25 11:58:36;;;;;;;5.72;4.43;;;20.80;99.90;;;;;;4997754;28;20438;-80
2023/08/25 12:01:07;;;;;;;7.57;6.63;;;21.00;99.90;;;;;;4967873;28;20126;-80
2023/08/25 12:03:34;;;;;;;8.95;7.28;;;21.00;99.90;;;;;;4944496;28;20383;-79
2023/08/25 12:06:06;;;;;;;6.68;5.75;;;21.00;99.90;;;;;;4954795;28;20043;-80
2023/08/25 12:08:33;;;;;;;7.88;5.63;;;21.10;99.90;;;;;;4970047;28;20137;-80
2023/08/25 12:10:59;;;;;;;6.97;5.55;;;21.10;99.90;;;;;;4969253;28;20054;-79
2023/08/25 12:13:29;;;;;;;4.85;4.35;;;21.20;99.90;;;;;;4952272;28;20659;-79
2023/08/25 12:15:55;;;;;;;5.80;4.57;;;21.30;99.90;;;;;;5002494;28;20043;-79
2023/08/25 12:18:22;;;;;;;4.18;3.78;;;21.30;99.90;;;;;;4972814;28;20472;-79
2023/08/25 12:20:49;;;;;;;4.03;3.33;;;21.40;99.90;;;;;;4973122;28;20039;-79
2023/08/25 12:23:15;;;;;;;4.43;3.40;;;21.50;99.90;;;;;;4974548;28;20498;-79
2023/08/25 12:25:44;;;;;;;5.82;5.22;;;21.50;99.90;;;;;;4971829;28;20045;-79
2023/08/25 12:28:13;;;;;;;4.72;3.80;;;21.40;99.90;;;;;;4970262;28;20047;-79
2023/08/25 12:30:39;;;;;;;4.57;3.63;;;21.50;99.90;;;;;;4973911;28;20486;-79
2023/08/25 12:33:05;;;;;;;4.00;3.38;;;21.50;99.90;;;;;;4956891;28;20053;-79
2023/08/25 12:35:32;;;;;;;4.28;3.55;;;21.70;99.90;;;;;;4949926;28;20039;-79
2023/08/25 12:37:58;;;;;;;7.88;5.78;;;21.70;99.90;;;;;;4941479;28;20506;-78
2023/08/25 12:40:24;;;;;;;6.25;4.95;;;21.90;99.90;;;;;;4976919;28;20048;-78
2023/08/25 12:42:53;;;;;;;3.70;2.83;;;22.00;99.90;;;;;;4973397;28;20109;-79
2023/08/25 12:45:23;;;;;;;3.13;2.83;;;22.10;99.90;;;;;;4976655;28;20039;-79
2023/08/25 12:47:52;;;;;;;4.40;4.00;;;22.20;99.90;;;;;;4974596;28;20054;-79
2023/08/25 12:50:17;;;;;;;4.45;3.90;;;22.20;99.90;;;;;;4972355;28;20050;-79
2023/08/25 12:52:43;;;;;;;5.28;3.92;;;22.30;99.90;;;;;;4973927;28;20046;-78
2023/08/25 12:55:10;;;;;;;5.80;4.57;;;22.40;99.90;;;;;;4974099;28;20043;-78
2023/08/25 12:57:37;;;;;;;3.90;3.50;;;22.60;99.90;;;;;;4969497;28;20073;-79
2023/08/25 13:00:04;;;;;;;6.47;5.13;;;22.70;99.90;;;;;;4973856;28;20502;-78